createdAt,value
2019-05-02T00:02:46.605Z,14.90
2019-05-02T00:07:53.829Z,12.60
2019-05-02T00:12:58.441Z,13.62
2019-05-02T00:18:03.682Z,17.27
2019-05-02T00:23:08.708Z,14.28
2019-05-02T00:28:14.061Z,15.32
2019-05-02T00:33:18.938Z,18.10
2019-05-02T00:38:23.845Z,14.47
2019-05-02T00:43:34.257Z,14.43
2019-05-02T00:48:46.178Z,14.07
2019-05-02T00:53:54.178Z,14.63
2019-05-02T00:59:02.257Z,16.17
2019-05-02T01:04:11.924Z,12.90
2019-05-02T01:09:16.718Z,14.50
2019-05-02T01:14:21.702Z,15.03
2019-05-02T01:19:26.412Z,14.30
2019-05-02T01:24:34.177Z,13.58
2019-05-02T01:29:41.966Z,14.45
2019-05-02T01:34:54.366Z,14.03
2019-05-02T01:39:58.814Z,19.60
2019-05-02T01:45:06.766Z,17.90
2019-05-02T01:50:10.378Z,16.70
2019-05-02T01:55:17.089Z,15.87
2019-05-02T02:00:21.569Z,14.60
2019-05-02T02:05:27.624Z,15.53
2019-05-02T02:10:33.211Z,17.60
2019-05-02T02:15:38.236Z,17.15
2019-05-02T02:21:02.198Z,17.12
2019-05-02T02:26:13.876Z,15.70
2019-05-02T02:31:21.007Z,20.33
2019-05-02T02:36:31.565Z,15.47
2019-05-02T02:41:32.412Z,13.32
2019-05-02T02:46:40.093Z,14.75
2019-05-02T02:51:45.003Z,14.13
2019-05-02T02:56:50.273Z,15.65
2019-05-02T03:01:55.100Z,11.63
2019-05-02T03:07:00.054Z,14.70
2019-05-02T03:12:23.124Z,11.83
2019-05-02T03:17:28.793Z,13.27
2019-05-02T03:22:34.782Z,13.32
2019-05-02T03:27:40.579Z,14.43
2019-05-02T03:33:02.826Z,11.43
2019-05-02T03:37:53.129Z,12.60
2019-05-02T03:42:58.548Z,11.43
2019-05-02T03:48:09.266Z,13.40
2019-05-02T03:53:17.896Z,15.32
2019-05-02T03:58:20.724Z,9.73
2019-05-02T04:03:26.109Z,9.38
2019-05-02T04:08:32.816Z,11.10
2019-05-02T04:13:38.237Z,12.05
2019-05-02T04:18:54.742Z,9.48
2019-05-02T04:23:50.224Z,10.23
2019-05-02T04:28:54.942Z,9.00
2019-05-02T04:33:59.803Z,9.30
2019-05-02T04:39:15.580Z,14.37
2019-05-02T04:44:12.849Z,10.57
2019-05-02T04:49:22.214Z,11.55
2019-05-02T04:54:31.434Z,7.08
2019-05-02T04:59:39.493Z,11.18
2019-05-02T05:04:48.641Z,9.23
2019-05-02T05:09:57.907Z,8.88
2019-05-02T05:14:57.861Z,9.70
2019-05-02T05:20:12.258Z,8.43
2019-05-02T05:25:21.117Z,8.13
2019-05-02T05:30:24.232Z,13.23
2019-05-02T05:35:32.187Z,11.83
2019-05-02T05:40:37.671Z,10.70
2019-05-02T05:45:53.309Z,10.98
2019-05-02T05:50:49.626Z,10.68
2019-05-02T05:55:58.957Z,8.98
2019-05-02T06:01:00.907Z,8.55
2019-05-02T06:06:08.225Z,9.73
2019-05-02T06:11:14.806Z,9.98
2019-05-02T06:16:19.507Z,8.98
2019-05-02T06:21:24.333Z,8.35
2019-05-02T06:26:29.637Z,8.70
2019-05-02T06:31:38.239Z,9.98
2019-05-02T06:36:41.391Z,11.80
2019-05-02T06:41:57.505Z,11.85
2019-05-02T06:47:04.128Z,8.83
2019-05-02T06:52:05.934Z,9.43
2019-05-02T06:57:10.843Z,9.38
2019-05-02T07:02:15.584Z,10.15
2019-05-02T07:07:25.213Z,9.33
2019-05-02T07:12:27.263Z,8.93
2019-05-02T07:17:40.895Z,9.13
2019-05-02T07:22:51.395Z,11.97
2019-05-02T07:28:04.673Z,12.55
2019-05-02T07:33:08.459Z,9.55
2019-05-02T07:38:13.208Z,12.10
2019-05-02T07:43:21.328Z,12.25
2019-05-02T07:48:24.533Z,8.95
2019-05-02T07:53:29.732Z,10.57
2019-05-02T07:58:38.474Z,10.25
2019-05-02T08:03:40.888Z,11.65
2019-05-02T08:08:50.921Z,12.83
2019-05-02T08:14:00.322Z,13.20
2019-05-02T08:19:05.548Z,14.95
2019-05-02T08:24:09.884Z,14.15
2019-05-02T08:29:15.586Z,14.83
2019-05-02T08:34:29.078Z,16.77
2019-05-02T08:39:35.181Z,14.13
2019-05-02T08:44:50.830Z,14.73
2019-05-02T08:49:49.350Z,16.10
2019-05-02T08:54:53.450Z,13.88
2019-05-02T09:00:00.166Z,14.83
2019-05-02T09:05:06.109Z,12.88
2019-05-02T09:10:12.831Z,18.37
2019-05-02T09:15:22.206Z,14.83
2019-05-02T09:20:32.855Z,16.00
2019-05-02T09:25:37.732Z,17.35
2019-05-02T09:30:42.689Z,22.65
2019-05-02T09:35:47.692Z,15.05
2019-05-02T09:40:56.152Z,16.82
2019-05-02T09:45:59.164Z,18.42
2019-05-02T09:51:15.661Z,16.05
2019-05-02T09:56:12.703Z,17.12
2019-05-02T10:01:26.300Z,21.67
2019-05-02T10:06:35.289Z,22.35
2019-05-02T10:11:41.693Z,20.55
2019-05-02T10:16:49.419Z,24.23
2019-05-02T10:21:56.167Z,19.98
2019-05-02T10:27:04.276Z,21.30
2019-05-02T10:32:12.368Z,18.77
2019-05-02T10:37:14.844Z,18.35
2019-05-02T10:42:21.971Z,21.30
2019-05-02T10:47:26.286Z,19.75
2019-05-02T10:52:37.034Z,18.85
2019-05-02T10:57:42.147Z,22.20
2019-05-02T11:03:12.093Z,18.50
2019-05-02T11:08:17.027Z,27.90
2019-05-02T11:14:00.511Z,21.37
2019-05-02T11:19:07.516Z,18.70
2019-05-02T11:24:14.225Z,18.25
2019-05-02T11:29:18.805Z,17.57
2019-05-02T11:34:23.557Z,17.30
2019-05-02T11:39:37.121Z,24.02
2019-05-02T11:44:35.016Z,17.82
2019-05-02T11:49:52.081Z,20.70
2019-05-02T11:54:57.515Z,20.27
2019-05-02T12:00:04.944Z,22.95
2019-05-02T12:05:12.778Z,18.82
2019-05-02T12:10:17.966Z,16.30
2019-05-02T12:15:23.039Z,17.47
2019-05-02T12:20:28.676Z,20.17
2019-05-02T12:25:42.291Z,19.65
2019-05-02T12:30:47.259Z,18.65
2019-05-02T12:35:52.598Z,19.42
2019-05-02T12:40:57.982Z,17.05
2019-05-02T12:46:03.041Z,17.05
2019-05-02T12:51:07.727Z,18.67
2019-05-02T12:56:12.500Z,16.30
2019-05-02T13:01:17.352Z,16.82
2019-05-02T13:06:22.425Z,16.93
2019-05-02T13:11:44.659Z,15.10
2019-05-02T13:16:53.555Z,14.20
2019-05-02T13:22:29.152Z,13.48
2019-05-02T13:27:43.258Z,12.40
2019-05-02T13:32:53.715Z,14.10
2019-05-02T13:37:59.902Z,13.62
2019-05-02T13:54:18.865Z,13.25
2019-05-02T13:59:23.568Z,9.93
2019-05-02T14:04:28.569Z,17.48
2019-05-02T14:10:02.435Z,17.10
2019-05-02T14:15:18.049Z,13.70
2019-05-02T14:20:23.037Z,13.13
2019-05-02T14:25:28.223Z,16.87
2019-05-02T14:30:39.475Z,12.43
2019-05-02T14:35:39.675Z,16.12
2019-05-02T14:40:59.320Z,18.30
2019-05-02T14:46:04.803Z,17.60
2019-05-02T14:51:11.365Z,14.07
2019-05-02T14:56:43.408Z,17.82
2019-05-02T15:01:49.243Z,20.95
2019-05-02T15:06:54.322Z,18.32
2019-05-02T15:11:59.133Z,22.95
2019-05-02T15:17:06.578Z,26.27
2019-05-02T15:22:12.425Z,20.43
2019-05-02T15:27:18.012Z,21.37
2019-05-02T15:32:37.202Z,24.35
2019-05-02T15:37:41.645Z,21.77
2019-05-02T15:42:46.265Z,26.20
2019-05-02T15:47:52.617Z,24.20
2019-05-02T15:53:09.472Z,17.70
2019-05-02T15:58:16.932Z,19.82
2019-05-02T16:03:23.999Z,21.80
2019-05-02T16:08:30.360Z,21.48
2019-05-02T16:13:35.098Z,24.85
2019-05-02T16:18:40.940Z,19.45
2019-05-02T16:24:10.799Z,22.48
2019-05-02T16:29:13.037Z,19.98
2019-05-02T16:34:17.728Z,20.68
2019-05-02T16:39:22.882Z,21.35
2019-05-02T16:44:28.069Z,22.93
2019-05-02T16:49:33.942Z,22.62
2019-05-02T16:54:41.729Z,23.95
2019-05-02T16:59:45.740Z,18.90
2019-05-02T17:04:52.049Z,22.37
2019-05-02T17:10:28.272Z,21.40
2019-05-02T17:15:40.334Z,20.20
2019-05-02T17:20:46.907Z,21.30
2019-05-02T17:25:52.156Z,22.25
2019-05-02T17:30:57.254Z,23.05
2019-05-02T17:36:02.288Z,26.20
2019-05-02T17:41:07.914Z,31.15
2019-05-02T17:46:18.418Z,25.53
2019-05-02T17:51:37.527Z,28.10
2019-05-02T17:56:41.656Z,30.57
2019-05-02T18:01:47.669Z,27.87
2019-05-02T18:06:55.132Z,35.43
2019-05-02T18:12:01.475Z,30.95
2019-05-02T18:17:07.208Z,31.42
2019-05-02T18:22:23.369Z,34.40
2019-05-02T18:27:18.448Z,34.03
2019-05-02T18:32:26.046Z,34.60
2019-05-02T18:37:29.589Z,32.45
2019-05-02T18:42:42.298Z,34.80
2019-05-02T18:47:47.421Z,31.65
2019-05-02T18:52:53.539Z,32.83
2019-05-02T18:58:05.453Z,32.23
2019-05-02T19:03:15.092Z,33.58
2019-05-02T19:08:28.351Z,32.03
2019-05-02T19:13:25.772Z,29.10
2019-05-02T19:18:32.406Z,29.18
2019-05-02T19:23:37.815Z,30.43
2019-05-02T19:29:17.074Z,30.62
2019-05-02T19:34:24.725Z,29.15
2019-05-02T19:39:29.615Z,32.30
2019-05-02T19:44:34.665Z,27.80
2019-05-02T19:49:39.673Z,33.20
2019-05-02T19:54:44.773Z,27.98
2019-05-02T19:59:49.557Z,30.62
2019-05-02T20:04:54.356Z,30.05
2019-05-02T20:10:01.811Z,29.95
2019-05-02T20:15:07.116Z,28.35
2019-05-02T20:20:35.858Z,27.58
2019-05-02T20:25:42.626Z,31.37
2019-05-02T20:30:48.126Z,29.20
2019-05-02T20:35:52.961Z,25.97
2019-05-02T20:40:57.742Z,32.98
2019-05-02T20:46:04.190Z,28.32
2019-05-02T20:51:08.930Z,15.00
2019-05-02T20:56:13.732Z,14.80
2019-05-02T21:01:19.966Z,12.35
2019-05-02T21:06:44.024Z,12.33
2019-05-02T21:11:53.103Z,12.20
2019-05-02T21:16:58.014Z,11.28
2019-05-02T21:22:08.154Z,11.20
2019-05-02T21:27:13.396Z,13.85
2019-05-02T21:32:18.142Z,11.03
2019-05-02T21:37:22.936Z,11.83
2019-05-02T21:42:27.707Z,12.70
2019-05-02T21:47:32.851Z,14.95
2019-05-02T21:52:48.228Z,11.18
2019-05-02T21:57:53.092Z,5.65
2019-05-02T22:02:57.799Z,4.37
2019-05-02T22:08:03.031Z,5.10
2019-05-02T22:13:08.738Z,4.58
2019-05-02T22:18:13.842Z,5.13
2019-05-02T22:23:18.621Z,4.83
2019-05-02T22:28:24.732Z,4.70
2019-05-02T22:33:29.730Z,7.58
2019-05-02T22:38:56.377Z,6.40
2019-05-02T22:44:02.199Z,5.80
2019-05-02T22:49:07.950Z,5.90
2019-05-02T22:54:24.292Z,4.83
2019-05-02T22:59:19.323Z,3.50
2019-05-02T23:04:25.246Z,2.87
2019-05-02T23:09:30.236Z,3.77
2019-05-02T23:14:35.619Z,3.35
2019-05-02T23:19:42.374Z,3.85
2019-05-02T23:25:08.947Z,3.27
2019-05-02T23:30:15.899Z,4.63
2019-05-02T23:35:20.668Z,3.50
2019-05-02T23:40:25.421Z,3.02
2019-05-02T23:45:31.616Z,3.13
2019-05-02T23:50:36.478Z,6.70
2019-05-02T23:55:42.602Z,2.60
